Date,TemperatureHighF,TemperatureAvgF,TemperatureLowF,DewpointHighF,DewpointAvgF,DewpointLowF,HumidityHigh,HumidityAvg,HumidityLow,PressureMaxIn,PressureMinIn,WindSpeedMaxMPH,WindSpeedAvgMPH,GustSpeedMaxMPH,PrecipitationSumIn
2013-3-1,53,46,39,37,32,30,80,60,43,29.90,29.80,8,3,14,0.00
2013-3-2,48,43,37,38,34,32,93,72,53,29.88,29.79,8,2,10,0.00
2013-3-3,48,41,36,34,26,23,86,59,39,29.95,29.83,11,4,14,0.01
2013-3-4,52,41,31,29,22,17,76,50,25,30.12,29.95,8,3,18,0.07
2013-3-5,66,54,40,55,41,29,85,64,38,30.09,29.61,14,6,21,0.00
2013-3-6,61,49,42,55,31,24,81,51,35,30.01,29.58,18,11,30,0.00
2013-3-7,57,46,36,34,31,29,76,57,38,30.17,30.01,8,4,12,0.00
2013-3-8,57,46,35,32,29,26,73,52,31,30.24,30.12,9,4,13,0.00
2013-3-9,64,49,37,41,34,29,88,57,35,30.28,30.18,8,3,11,0.00
2013-3-10,63,50,36,43,34,22,94,62,22,30.28,30.19,9,3,12,0.00
2013-3-11,71,58,44,58,50,40,93,77,51,30.20,29.90,13,5,18,0.00
2013-3-12,71,65,59,63,59,49,95,83,64,29.92,29.75,13,5,15,0.00
2013-3-13,63,55,45,49,34,23,73,48,23,30.07,29.88,13,4,18,0.00
2013-3-14,54,45,35,31,23,18,61,43,26,30.25,30.06,9,4,13,0.00
2013-3-15,42,38,34,30,30,29,84,74,62,30.18,30.13,1,0,2,0.00
2013-3-16,80,74,56,49,46,42,59,38,28,29.96,29.75,17,10,0,0.00
2013-3-17,78,71,59,58,54,47,81,55,34,30.01,29.87,12,6,0,0.00
2013-3-18,63,58,55,54,53,51,94,84,70,30.04,29.83,11,5,0,0.00
2013-3-19,70,64,56,54,45,34,94,52,39,29.97,29.83,9,4,14,0.00
2013-3-20,57,51,42,39,28,15,86,43,21,30.09,29.78,8,3,11,0.00
2013-3-21,54,46,40,39,22,11,87,43,19,29.92,29.70,11,6,17,0.00
2013-3-22,53,42,31,36,23,15,66,48,26,30.07,29.92,8,3,14,0.03
2013-3-23,50,45,41,46,40,35,95,85,63,30.05,29.87,6,1,7,0.28
2013-3-24,58,49,44,56,47,42,96,94,89,29.88,29.40,19,5,22,0.42
2013-3-25,52,47,43,43,34,25,95,64,37,29.87,29.51,18,9,32,0.20
2013-3-26,50,43,34,31,27,25,73,54,39,30.10,29.87,11,6,15,0.03
2013-3-27,56,46,36,32,28,24,72,50,31,30.21,30.10,10,4,16,0.01
2013-3-28,57,46,35,32,27,23,74,50,26,30.25,30.14,9,3,13,0.00
2013-3-29,62,49,35,39,32,24,81,53,25,30.31,30.18,10,3,18,0.00
2013-3-30,63,55,48,48,44,39,88,68,48,30.21,30.07,10,3,13,0.00
2013-3-31,73,63,51,58,55,47,90,76,56,30.08,29.84,14,7,22,0.00